createdAt,value
2016-04-27T00:00:23.357Z,75.6
2016-04-27T00:01:23.343Z,75.89
2016-04-27T00:02:23.330Z,75.6
2016-04-27T00:03:23.302Z,75.41
2016-04-27T00:04:23.290Z,74.65
2016-04-27T00:05:23.260Z,75.6
2016-04-27T00:06:23.123Z,76.08
2016-04-27T00:07:23.234Z,75.89
2016-04-27T00:08:23.222Z,75.31
2016-04-27T00:09:23.209Z,75.22
2016-04-27T00:10:23.195Z,75.41
2016-04-27T00:11:23.183Z,75.22
2016-04-27T00:12:23.154Z,74.84
2016-04-27T00:13:23.142Z,75.22
2016-04-27T00:14:23.128Z,74.93
2016-04-27T00:15:23.115Z,75.89
2016-04-27T00:16:23.102Z,76.46
2016-04-27T00:17:23.074Z,76.18
2016-04-27T00:18:23.045Z,75.6
2016-04-27T00:19:23.047Z,75.6
2016-04-27T00:20:23.020Z,75.89
2016-04-27T00:21:23.022Z,75.98
2016-04-27T00:22:24.384Z,76.18
2016-04-27T00:23:22.981Z,76.04
2016-04-27T00:24:22.968Z,76.56
2016-04-27T00:25:22.939Z,77.28
2016-04-27T00:26:22.926Z,77.57
2016-04-27T00:27:22.897Z,77.67
2016-04-27T00:28:22.900Z,76.9
2016-04-27T00:29:22.872Z,76.65
2016-04-27T00:30:22.859Z,75.89
2016-04-27T00:31:22.830Z,76.18
2016-04-27T00:32:22.833Z,75.89
2016-04-27T00:33:22.821Z,76.18
2016-04-27T00:34:22.791Z,76.65
2016-04-27T00:35:22.779Z,76.37
2016-04-27T00:36:23.265Z,76.37
2016-04-27T00:37:22.737Z,76.08
2016-04-27T00:38:22.724Z,76.46
2016-04-27T00:39:22.726Z,76.84
2016-04-27T00:40:23.004Z,77.57
2016-04-27T00:41:22.676Z,77.28
2016-04-27T00:42:22.666Z,76.84
2016-04-27T00:43:22.658Z,76.56
2016-04-27T00:44:22.676Z,77.04
2016-04-27T00:45:22.637Z,77.04
2016-04-27T00:46:22.577Z,76.56
2016-04-27T00:47:22.579Z,76.08
2016-04-27T00:48:22.551Z,76.18
2016-04-27T00:49:28.101Z,76.56
2016-04-27T00:50:22.510Z,76.56
2016-04-27T00:51:23.137Z,75.98
2016-04-27T00:52:22.484Z,76.18
2016-04-27T00:53:22.470Z,76.46
2016-04-27T00:54:22.457Z,76.46
2016-04-27T00:55:22.429Z,77.23
2016-04-27T00:56:22.417Z,77.42
2016-04-27T00:57:22.403Z,77.04
2016-04-27T00:58:22.390Z,76.56
2016-04-27T00:59:22.362Z,77.23
2016-04-27T01:00:22.349Z,76.84
2016-04-27T01:01:22.320Z,76.65
2016-04-27T01:02:22.323Z,76.56
2016-04-27T01:03:22.310Z,76.65
2016-04-27T01:04:22.282Z,76.65
2016-04-27T01:05:22.268Z,76.84
2016-04-27T01:06:22.772Z,77.13
2016-04-27T01:07:22.243Z,76.65
2016-04-27T01:08:22.229Z,77.13
2016-04-27T01:09:22.202Z,76.75
2016-04-27T01:10:22.188Z,76.94
2016-04-27T01:11:22.159Z,77.13
2016-04-27T01:12:22.146Z,76.75
2016-04-27T01:13:22.134Z,76.65
2016-04-27T01:14:22.121Z,76.46
2016-04-27T01:15:22.107Z,76.27
2016-04-27T01:16:22.079Z,76.27
2016-04-27T01:17:22.067Z,75.98
2016-04-27T01:18:22.069Z,76.94
2016-04-27T01:19:22.040Z,77
2016-04-27T01:20:22.028Z,76.46
2016-04-27T01:21:22.014Z,76.75
2016-04-27T01:22:21.992Z,77.61
2016-04-27T01:23:24.636Z,76.75
2016-04-27T01:24:21.952Z,76.65
2016-04-27T01:25:21.939Z,76.75
2016-04-27T01:26:21.927Z,76.37
2016-04-27T01:27:21.913Z,76.27
2016-04-27T01:28:21.885Z,76.56
2016-04-27T01:29:21.856Z,76.18
2016-04-27T01:30:21.844Z,75.89
2016-04-27T01:31:21.830Z,75.79
2016-04-27T01:32:21.818Z,76.75
2016-04-27T01:33:21.789Z,76.37
2016-04-27T01:34:21.792Z,76.46
2016-04-27T01:35:21.779Z,76.27
2016-04-27T01:36:21.907Z,75.6
2016-04-27T01:37:21.738Z,75.79
2016-04-27T01:38:21.724Z,75.89
2016-04-27T01:39:21.712Z,76.52
2016-04-27T01:40:21.682Z,75.85
2016-04-27T01:41:21.670Z,75.98
2016-04-27T01:42:21.641Z,75.98
2016-04-27T01:43:21.503Z,75.89
2016-04-27T01:44:21.615Z,75.79
2016-04-27T01:45:21.603Z,76.27
2016-04-27T01:46:21.574Z,75.89
2016-04-27T01:47:21.561Z,75.41
2016-04-27T01:48:21.548Z,75.89
2016-04-27T01:49:21.520Z,75.51
2016-04-27T01:50:21.508Z,75.79
2016-04-27T01:51:22.135Z,75.98
2016-04-27T01:52:21.482Z,75.98
2016-04-27T01:53:21.469Z,75.7
2016-04-27T01:54:21.456Z,75.89
2016-04-27T01:55:21.426Z,75.89
2016-04-27T01:56:21.415Z,75.89
2016-04-27T01:57:21.401Z,75.89
2016-04-27T01:58:21.373Z,76.71
2016-04-27T01:59:21.375Z,75.95
2016-04-27T02:00:21.347Z,75.51
2016-04-27T02:01:21.334Z,76.08
2016-04-27T02:02:21.321Z,75.7
2016-04-27T02:03:21.292Z,75.76
2016-04-27T02:04:21.295Z,75.79
2016-04-27T02:05:21.267Z,75.6
2016-04-27T02:06:21.661Z,75.7
2016-04-27T02:07:21.225Z,75.79
2016-04-27T02:08:21.212Z,75.41
2016-04-27T02:09:21.200Z,75.7
2016-04-27T02:10:21.187Z,76.18
2016-04-27T02:11:21.158Z,75.7
2016-04-27T02:12:21.144Z,76.18
2016-04-27T02:13:21.132Z,74.93
2016-04-27T02:14:21.119Z,75.79
2016-04-27T02:15:21.105Z,75.79
2016-04-27T02:16:21.077Z,75.51
2016-04-27T02:17:21.065Z,75.7
2016-04-27T02:18:21.068Z,75.7
2016-04-27T02:19:21.038Z,76.08
2016-04-27T02:20:21.026Z,75.7
2016-04-27T02:21:20.857Z,75.89
2016-04-27T02:22:20.985Z,75.51
2016-04-27T02:23:20.971Z,75.7
2016-04-27T02:24:20.943Z,76.27
2016-04-27T02:25:20.930Z,75.7
2016-04-27T02:26:20.902Z,75.6
2016-04-27T02:27:20.887Z,75.89
2016-04-27T02:28:20.890Z,76.08
2016-04-27T02:29:20.863Z,75.98
2016-04-27T02:30:20.850Z,75.51
2016-04-27T02:31:20.836Z,75.98
2016-04-27T02:32:20.808Z,75.98
2016-04-27T02:33:20.811Z,76.08
2016-04-27T02:34:20.782Z,76.27
2016-04-27T02:35:20.769Z,75.7
2016-04-27T02:36:23.913Z,76.08
2016-04-27T02:37:20.727Z,75.79
2016-04-27T02:38:20.715Z,75.51
2016-04-27T02:39:20.702Z,75.98
2016-04-27T02:40:20.673Z,76.62
2016-04-27T02:41:20.661Z,76.23
2016-04-27T02:42:20.655Z,76.08
2016-04-27T02:43:20.684Z,75.79
2016-04-27T02:44:20.712Z,75.6
2016-04-27T02:45:20.727Z,76.37
2016-04-27T02:46:20.739Z,76.18
2016-04-27T02:47:20.763Z,76.18
2016-04-27T02:48:20.922Z,75.79
2016-04-27T02:49:20.784Z,76.75
2016-04-27T02:50:20.772Z,76.75
2016-04-27T02:51:21.164Z,76.46
2016-04-27T02:52:20.758Z,76.37
2016-04-27T02:53:20.736Z,75.89
2016-04-27T02:54:20.758Z,75.98
2016-04-27T02:55:20.767Z,77.09
2016-04-27T02:56:20.712Z,77.48
2016-04-27T02:57:20.704Z,76.62
2016-04-27T02:58:21.099Z,77.13
2016-04-27T02:59:20.667Z,77
2016-04-27T03:00:20.656Z,77.38
2016-04-27T03:01:20.644Z,77.09
2016-04-27T03:02:20.634Z,76.46
2016-04-27T03:03:20.621Z,76.18
2016-04-27T03:04:20.609Z,76.84
2016-04-27T03:05:20.581Z,76.9
2016-04-27T03:06:20.569Z,77.04
2016-04-27T03:07:20.385Z,77.57
2016-04-27T03:08:20.529Z,77.76
2016-04-27T03:09:20.517Z,77.38
2016-04-27T03:10:20.503Z,77.09
2016-04-27T03:11:20.491Z,76.62
2016-04-27T03:12:20.463Z,76.18
2016-04-27T03:13:20.420Z,76.46
2016-04-27T03:14:20.453Z,77.23
2016-04-27T03:15:20.424Z,77.67
2016-04-27T03:16:20.411Z,77.57
2016-04-27T03:17:20.398Z,77.09
2016-04-27T03:18:20.385Z,77.13
2016-04-27T03:19:20.356Z,77.04
2016-04-27T03:20:20.328Z,76.52
2016-04-27T03:21:20.331Z,76.84
2016-04-27T03:22:20.161Z,76.9
2016-04-27T03:23:20.289Z,76.94
2016-04-27T03:24:20.274Z,77.42
2016-04-27T03:25:20.261Z,77.48
2016-04-27T03:26:20.233Z,77.67
2016-04-27T03:27:20.219Z,78.43
2016-04-27T03:28:20.206Z,77.28
2016-04-27T03:29:20.194Z,77.38
2016-04-27T03:30:20.165Z,77.57
2016-04-27T03:31:20.152Z,77.76
2016-04-27T03:32:20.139Z,77.76
2016-04-27T03:33:20.126Z,77.57
2016-04-27T03:34:20.098Z,77.57
2016-04-27T03:35:20.085Z,77.57
2016-04-27T03:36:19.915Z,78.05
2016-04-27T03:37:20.527Z,77.57
2016-04-27T03:38:20.046Z,78.14
2016-04-27T03:39:20.017Z,78.14
2016-04-27T03:40:20.004Z,79
2016-04-27T03:41:19.992Z,78.2
2016-04-27T03:42:19.962Z,77.57
2016-04-27T03:43:19.950Z,77.38
2016-04-27T03:44:19.937Z,77.38
2016-04-27T03:45:19.908Z,76.81
2016-04-27T03:46:19.911Z,77.28
2016-04-27T03:47:19.883Z,77.38
2016-04-27T03:48:19.854Z,77.19
2016-04-27T03:49:19.841Z,77.38
2016-04-27T03:50:19.828Z,77.19
2016-04-27T03:51:20.221Z,77.48
2016-04-27T03:52:19.897Z,77.76
2016-04-27T03:53:19.774Z,77.57
2016-04-27T03:54:19.761Z,77.57
2016-04-27T03:55:19.748Z,77.48
2016-04-27T03:56:19.735Z,77.76
2016-04-27T03:57:19.706Z,77.09
2016-04-27T03:58:19.693Z,77.76
2016-04-27T03:59:19.696Z,78.68
2016-04-27T04:00:19.668Z,78.43
2016-04-27T04:01:19.638Z,78.68
2016-04-27T04:02:19.626Z,78.24
2016-04-27T04:03:19.613Z,77.67
2016-04-27T04:04:19.585Z,78.53
2016-04-27T04:05:19.572Z,77.76
2016-04-27T04:06:19.575Z,77.67
2016-04-27T04:07:19.546Z,76.9
2016-04-27T04:08:19.518Z,77.38
2016-04-27T04:09:19.489Z,77.76
2016-04-27T04:10:19.492Z,77.76
2016-04-27T04:11:19.463Z,77.86
2016-04-27T04:12:19.452Z,77.48
2016-04-27T04:13:19.438Z,77.86
2016-04-27T04:14:19.284Z,77.76
2016-04-27T04:15:19.412Z,77.19
2016-04-27T04:16:19.383Z,77.95
2016-04-27T04:17:19.370Z,77.57
2016-04-27T04:18:19.343Z,77.38
2016-04-27T04:19:19.345Z,77.57
2016-04-27T04:20:19.332Z,77.48
2016-04-27T04:21:19.382Z,77.19
2016-04-27T04:22:19.294Z,77.38
2016-04-27T04:23:19.281Z,77.38
2016-04-27T04:24:19.252Z,77.38
2016-04-27T04:25:19.239Z,77.28
2016-04-27T04:26:19.210Z,77.09
2016-04-27T04:27:19.199Z,76.9
2016-04-27T04:28:19.185Z,76.23
2016-04-27T04:29:19.172Z,75.85
2016-04-27T04:30:19.144Z,76.46
2016-04-27T04:31:19.131Z,77.19
2016-04-27T04:32:19.102Z,77.57
2016-04-27T04:33:19.090Z,77.57
2016-04-27T04:34:19.076Z,77.38
2016-04-27T04:35:19.079Z,78.34
2016-04-27T04:36:19.050Z,77.38
2016-04-27T04:37:18.896Z,77.38
2016-04-27T04:38:19.009Z,77.76
2016-04-27T04:39:18.981Z,78.49
2016-04-27T04:40:18.967Z,78.24
2016-04-27T04:41:18.954Z,78.87
2016-04-27T04:42:18.942Z,78.72
2016-04-27T04:43:18.928Z,78.68
2016-04-27T04:44:18.901Z,78.72
2016-04-27T04:45:18.887Z,78.91
2016-04-27T04:46:18.875Z,78.58
2016-04-27T04:47:18.861Z,79.2
2016-04-27T04:48:18.833Z,80.02
2016-04-27T04:49:18.820Z,79.93
2016-04-27T04:50:18.806Z,79.73
2016-04-27T04:51:18.794Z,79.44
2016-04-27T04:52:18.781Z,78.78
2016-04-27T04:53:18.752Z,79.35
2016-04-27T04:54:18.725Z,79.06
2016-04-27T04:55:18.727Z,79.35
2016-04-27T04:56:21.291Z,79.25
2016-04-27T04:57:18.685Z,79.25
2016-04-27T04:58:18.672Z,79.1
2016-04-27T04:59:18.643Z,79.25
2016-04-27T05:00:18.630Z,79.06
2016-04-27T05:01:18.619Z,79.25
2016-04-27T05:02:18.699Z,78.63
2016-04-27T05:03:18.577Z,79
2016-04-27T05:04:18.563Z,79.2
2016-04-27T05:05:18.551Z,79.25
2016-04-27T05:06:18.538Z,79.16
2016-04-27T05:07:18.509Z,79.16
2016-04-27T05:08:18.496Z,79.35
2016-04-27T05:09:18.482Z,79.54
2016-04-27T05:10:18.470Z,78.97
2016-04-27T05:11:18.457Z,78.3
2016-04-27T05:12:18.429Z,78.43
2016-04-27T05:13:18.401Z,78.63
2016-04-27T05:14:18.387Z,79.35
2016-04-27T05:15:18.374Z,79.64
2016-04-27T05:16:18.673Z,80.11
2016-04-27T05:17:18.333Z,78.97
2016-04-27T05:18:18.335Z,78.68
2016-04-27T05:19:18.306Z,78.39
2016-04-27T05:20:18.294Z,79.06
2016-04-27T05:21:18.265Z,79.06
2016-04-27T05:22:18.253Z,79.35
2016-04-27T05:23:18.239Z,78.58
2016-04-27T05:24:18.211Z,79.35
2016-04-27T05:25:18.197Z,78.78
2016-04-27T05:26:18.185Z,78.58
2016-04-27T05:27:18.172Z,78.58
2016-04-27T05:28:18.158Z,78.24
2016-04-27T05:29:18.131Z,78.72
2016-04-27T05:30:18.102Z,78.87
2016-04-27T05:31:18.089Z,78.68
2016-04-27T05:32:18.077Z,79.35
2016-04-27T05:33:18.063Z,78.97
2016-04-27T05:34:18.066Z,78.58
2016-04-27T05:35:18.037Z,78.58
2016-04-27T05:36:18.009Z,78.11
2016-04-27T05:37:18.371Z,78.49
2016-04-27T05:38:17.968Z,77.72
2016-04-27T05:39:17.970Z,77.92
2016-04-27T05:40:17.941Z,78.39
2016-04-27T05:41:17.929Z,77.38
2016-04-27T05:42:17.900Z,77.57
2016-04-27T05:43:17.887Z,77.48
2016-04-27T05:44:17.873Z,77.09
2016-04-27T05:45:17.861Z,77.57
2016-04-27T05:46:17.832Z,77.34
2016-04-27T05:47:17.835Z,76.77
2016-04-27T05:48:17.807Z,76.9
2016-04-27T05:49:17.794Z,76.52
2016-04-27T05:50:17.765Z,77.57
2016-04-27T05:51:17.752Z,76.9
2016-04-27T05:52:17.927Z,77.67
2016-04-27T05:53:17.726Z,78.2
2016-04-27T05:54:17.698Z,77.44
2016-04-27T05:55:17.685Z,77.57
2016-04-27T05:56:17.672Z,78.53
2016-04-27T05:57:17.644Z,78.01
2016-04-27T05:58:17.631Z,77.57
2016-04-27T05:59:17.617Z,77.57
2016-04-27T06:00:17.605Z,78.01
2016-04-27T06:01:17.576Z,77.57
2016-04-27T06:02:17.563Z,77.48
2016-04-27T06:03:17.550Z,77.76
2016-04-27T06:04:17.538Z,77.44
2016-04-27T06:05:17.524Z,76.9
2016-04-27T06:06:17.496Z,77.09
2016-04-27T06:07:17.482Z,77.38
2016-04-27T06:08:17.454Z,77.92
2016-04-27T06:09:17.457Z,77.34
2016-04-27T06:10:17.428Z,76.52
2016-04-27T06:11:17.416Z,76.9
2016-04-27T06:12:17.418Z,76.9
2016-04-27T06:13:17.374Z,76.33
2016-04-27T06:14:17.362Z,76.71
2016-04-27T06:15:17.348Z,76.62
2016-04-27T06:16:17.320Z,76.42
2016-04-27T06:17:17.306Z,76.9
2016-04-27T06:18:17.278Z,76.33
2016-04-27T06:19:17.265Z,76.14
2016-04-27T06:20:17.252Z,75.85
2016-04-27T06:21:17.256Z,76.04
2016-04-27T06:22:17.679Z,76.23
2016-04-27T06:23:17.198Z,75.85
2016-04-27T06:24:17.201Z,76.33
2016-04-27T06:25:17.172Z,76.71
2016-04-27T06:26:17.159Z,76.42
2016-04-27T06:27:17.130Z,75.66
2016-04-27T06:28:17.117Z,76.14
2016-04-27T06:29:17.089Z,76.27
2016-04-27T06:30:17.091Z,76.42
2016-04-27T06:31:17.063Z,76.23
2016-04-27T06:32:17.050Z,76.27
2016-04-27T06:33:17.037Z,75.47
2016-04-27T06:34:17.008Z,75.51
2016-04-27T06:35:16.996Z,75.76
2016-04-27T06:36:16.982Z,75.85
2016-04-27T06:37:17.048Z,75.18
2016-04-27T06:38:16.956Z,74.84
2016-04-27T06:39:16.929Z,75.79
2016-04-27T06:40:16.899Z,75.66
2016-04-27T06:41:16.902Z,75.18
2016-04-27T06:42:16.890Z,75.02
2016-04-27T06:43:16.860Z,75.12
2016-04-27T06:44:16.848Z,75.18
2016-04-27T06:45:16.835Z,75.95
2016-04-27T06:46:16.822Z,75.71
2016-04-27T06:47:16.793Z,75.76
2016-04-27T06:48:16.781Z,75.47
2016-04-27T06:49:16.768Z,75.47
2016-04-27T06:50:16.740Z,75.66
2016-04-27T06:51:16.726Z,75.09
2016-04-27T06:52:16.713Z,75.31
2016-04-27T06:53:16.685Z,75.22
2016-04-27T06:54:16.672Z,75.85
2016-04-27T06:55:16.675Z,75.66
2016-04-27T06:56:18.474Z,75.76
2016-04-27T06:57:16.617Z,75.47
2016-04-27T06:58:16.605Z,75.95
2016-04-27T06:59:16.592Z,75.37
2016-04-27T07:00:16.578Z,75.95
2016-04-27T07:01:16.550Z,76.14
2016-04-27T07:02:16.553Z,75.85
2016-04-27T07:03:16.524Z,75.56
2016-04-27T07:04:16.496Z,75.66
2016-04-27T07:05:16.513Z,75.66
2016-04-27T07:06:16.485Z,75.27
2016-04-27T07:07:16.863Z,75.09
2016-04-27T07:08:16.444Z,75.27
2016-04-27T07:09:16.416Z,75.66
2016-04-27T07:10:16.402Z,75.27
2016-04-27T07:11:16.390Z,75.56
2016-04-27T07:12:16.361Z,74.8
2016-04-27T07:13:16.348Z,74.61
2016-04-27T07:14:16.335Z,74.8
2016-04-27T07:15:16.321Z,74.7
2016-04-27T07:16:16.293Z,74.41
2016-04-27T07:17:16.296Z,74.32
2016-04-27T07:18:16.268Z,74.04
2016-04-27T07:19:16.240Z,74.41
2016-04-27T07:20:16.226Z,73.4
2016-04-27T07:21:16.229Z,73.88
2016-04-27T07:22:16.106Z,73.94
2016-04-27T07:23:17.750Z,73.94
2016-04-27T07:24:16.158Z,73.46
2016-04-27T07:25:16.146Z,73.59
2016-04-27T07:26:16.133Z,73.21
2016-04-27T07:27:16.119Z,72.92
2016-04-27T07:28:16.092Z,72.34
2016-04-27T07:29:16.078Z,72.83
2016-04-27T07:30:16.065Z,72.92
2016-04-27T07:31:16.037Z,72.25
2016-04-27T07:32:16.024Z,72.06
2016-04-27T07:33:16.011Z,70.85
2016-04-27T07:34:16.030Z,70.18
2016-04-27T07:35:15.969Z,71.81
2016-04-27T07:36:15.972Z,71.58
2016-04-27T07:37:15.991Z,71.58
2016-04-27T07:38:15.962Z,71.52
2016-04-27T07:39:15.918Z,72.16
2016-04-27T07:40:15.905Z,71.87
2016-04-27T07:41:15.876Z,71.39
2016-04-27T07:42:15.863Z,71.58
2016-04-27T07:43:15.851Z,71.42
2016-04-27T07:44:15.838Z,71.97
2016-04-27T07:45:15.809Z,71.58
2016-04-27T07:46:15.795Z,71.68
2016-04-27T07:47:15.846Z,72.06
2016-04-27T07:48:15.771Z,71.77
2016-04-27T07:49:15.742Z,71.58
2016-04-27T07:50:15.729Z,71.62
2016-04-27T07:51:15.715Z,71.62
2016-04-27T07:52:15.531Z,72.06
2016-04-27T07:53:15.971Z,72.06
2016-04-27T07:54:15.645Z,72.63
2016-04-27T07:55:15.633Z,71.77
2016-04-27T07:56:15.636Z,71.87
2016-04-27T07:57:15.622Z,72.34
2016-04-27T07:58:15.594Z,72.44
2016-04-27T07:59:15.564Z,72.25
2016-04-27T08:00:15.567Z,72.34
2016-04-27T08:01:15.539Z,72.54
2016-04-27T08:02:15.527Z,72.83
2016-04-27T08:03:15.514Z,72.06
2016-04-27T08:04:15.500Z,73.11
2016-04-27T08:05:15.472Z,73.02
2016-04-27T08:06:15.458Z,72.83
2016-04-27T08:07:16.197Z,73.02
2016-04-27T08:08:15.277Z,72.25
2016-04-27T08:09:16.296Z,72.44
2016-04-27T08:10:15.391Z,72.06
2016-04-27T08:11:15.379Z,71.48
2016-04-27T08:12:15.350Z,70.28
2016-04-27T08:13:15.384Z,70.56
2016-04-27T08:14:15.324Z,70.56
2016-04-27T08:15:15.312Z,69.99
2016-04-27T08:16:15.299Z,70.95
2016-04-27T08:17:15.285Z,70.81
2016-04-27T08:18:15.257Z,70.95
2016-04-27T08:19:15.243Z,70.91
2016-04-27T08:20:15.388Z,71.3
2016-04-27T08:21:15.203Z,71.01
2016-04-27T08:22:15.034Z,70.85
2016-04-27T08:23:15.037Z,70.91
2016-04-27T08:24:15.148Z,69.99
2016-04-27T08:25:15.135Z,69.99
2016-04-27T08:26:15.122Z,69.64
2016-04-27T08:27:15.109Z,68.68
2016-04-27T08:28:15.096Z,68.78
2016-04-27T08:29:15.084Z,68.68
2016-04-27T08:30:15.070Z,68.11
2016-04-27T08:31:15.058Z,67.95
2016-04-27T08:32:15.029Z,67.76
2016-04-27T08:33:15.013Z,67.76
2016-04-27T08:34:15.001Z,67.47
2016-04-27T08:35:14.988Z,66.99
2016-04-27T08:36:15.318Z,67.57
2016-04-27T08:37:15.009Z,69.17
2016-04-27T08:38:14.949Z,69.17
2016-04-27T08:39:14.905Z,68.4
2016-04-27T08:40:15.126Z,68.21
2016-04-27T08:41:14.879Z,67.91
2016-04-27T08:42:14.866Z,66.71
2016-04-27T08:43:14.852Z,66.61
2016-04-27T08:44:14.840Z,66.61
2016-04-27T08:45:14.810Z,66.32
2016-04-27T08:46:14.814Z,66.89
2016-04-27T08:47:14.785Z,66.51
2016-04-27T08:48:14.756Z,66.71
2016-04-27T08:49:14.760Z,67.91
2016-04-27T08:50:14.746Z,68.4
2016-04-27T08:51:14.734Z,67.82
2016-04-27T08:52:16.830Z,67.15
2016-04-27T08:53:14.692Z,67.57
2016-04-27T08:54:14.726Z,67.57
2016-04-27T08:55:14.666Z,67.63
2016-04-27T08:56:14.654Z,66.42
2016-04-27T08:57:14.625Z,66.32
2016-04-27T08:58:14.611Z,66.51
2016-04-27T08:59:14.599Z,66.51
2016-04-27T09:00:14.586Z,66.51
2016-04-27T09:01:14.558Z,66.06
2016-04-27T09:02:14.544Z,66.16
2016-04-27T09:03:14.531Z,65.78
2016-04-27T09:04:14.519Z,65.88
2016-04-27T09:05:14.506Z,65.97
2016-04-27T09:06:14.508Z,66.35
2016-04-27T09:07:14.495Z,67.18
2016-04-27T09:08:14.467Z,66.51
2016-04-27T09:09:14.438Z,66.13
2016-04-27T09:10:14.457Z,66.22
2016-04-27T09:11:14.428Z,66.26
2016-04-27T09:12:14.384Z,66.61
2016-04-27T09:13:14.371Z,66.71
2016-04-27T09:14:14.357Z,66.8
2016-04-27T09:15:14.360Z,66.51
2016-04-27T09:16:14.332Z,66.45
2016-04-27T09:17:14.304Z,66.06
2016-04-27T09:18:14.307Z,66.32
2016-04-27T09:19:14.277Z,66.64
2016-04-27T09:20:14.280Z,65.39
2016-04-27T09:21:14.252Z,64.56
2016-04-27T09:22:14.707Z,63.79
2016-04-27T09:23:15.898Z,63.7
2016-04-27T09:24:14.198Z,64.47
2016-04-27T09:25:14.184Z,64.56
2016-04-27T09:26:14.171Z,65.49
2016-04-27T09:27:14.392Z,65.97
2016-04-27T09:28:14.131Z,65.55
2016-04-27T09:29:14.133Z,65.08
2016-04-27T09:30:14.120Z,64.34
2016-04-27T09:31:14.091Z,64.72
2016-04-27T09:32:14.078Z,63.67
2016-04-27T09:33:14.065Z,63.42
2016-04-27T09:34:14.053Z,63.03
2016-04-27T09:35:14.242Z,64.09
2016-04-27T09:36:14.058Z,65.11
2016-04-27T09:37:14.561Z,65.3
2016-04-27T09:38:13.985Z,65.08
2016-04-27T09:39:13.972Z,64.25
2016-04-27T09:40:13.958Z,63.96
2016-04-27T09:41:13.947Z,63.67
2016-04-27T09:42:13.964Z,64.47
2016-04-27T09:43:13.921Z,64.25
2016-04-27T09:44:13.908Z,63.89
2016-04-27T09:45:13.910Z,63.6
2016-04-27T09:46:13.882Z,63.64
2016-04-27T09:47:13.853Z,63.51
2016-04-27T09:48:13.840Z,63.6
2016-04-27T09:49:14.202Z,63.22
2016-04-27T09:50:13.815Z,62.96
2016-04-27T09:51:13.802Z,62.87
2016-04-27T09:52:13.726Z,62.48
2016-04-27T09:53:13.791Z,61.65
2016-04-27T09:54:13.763Z,61.62
2016-04-27T09:55:13.718Z,62.39
2016-04-27T09:56:13.908Z,62.77
2016-04-27T09:57:13.787Z,63.45
2016-04-27T09:58:13.711Z,63.7
2016-04-27T09:59:13.589Z,63.22
2016-04-27T10:00:13.654Z,65.05
2016-04-27T10:01:13.640Z,65.59
2016-04-27T10:02:13.690Z,64.85
2016-04-27T10:03:16.709Z,63.6
2016-04-27T10:04:13.961Z,63.89
2016-04-27T10:05:13.573Z,64.02
2016-04-27T10:06:13.561Z,65.33
2016-04-27T10:07:13.579Z,64.66
2016-04-27T10:08:13.550Z,63.79
2016-04-27T10:09:13.521Z,63.83
2016-04-27T10:10:13.509Z,64.12
2016-04-27T10:11:13.496Z,64.09
2016-04-27T10:12:13.482Z,63.35
2016-04-27T10:13:13.470Z,62.19
2016-04-27T10:14:13.441Z,62.23
2016-04-27T10:15:13.428Z,61.55
2016-04-27T10:16:13.415Z,61.17
2016-04-27T10:17:13.606Z,61.46
2016-04-27T10:18:13.390Z,62.32
2016-04-27T10:19:13.377Z,62.19
2016-04-27T10:20:13.364Z,61.84
2016-04-27T10:21:13.382Z,61.46
2016-04-27T10:22:13.326Z,60.91
2016-04-27T10:23:13.186Z,62.07
2016-04-27T10:24:13.658Z,61.75
2016-04-27T10:25:13.300Z,61.17
2016-04-27T10:26:13.273Z,61.49
2016-04-27T10:27:13.275Z,61.49
2016-04-27T10:28:13.466Z,62.71
2016-04-27T10:29:13.391Z,63.73
2016-04-27T10:30:13.206Z,63.83
2016-04-27T10:31:13.209Z,62.87
2016-04-27T10:32:13.555Z,61.17
2016-04-27T10:33:13.339Z,60.05
2016-04-27T10:34:13.170Z,58.54
2016-04-27T10:35:13.173Z,56.91
2016-04-27T10:36:13.128Z,57.99
2016-04-27T10:37:13.272Z,57.42
2016-04-27T10:38:12.962Z,58.18
2016-04-27T10:39:13.089Z,58.35
2016-04-27T10:40:13.077Z,57.13
2016-04-27T10:41:13.094Z,56.87
2016-04-27T10:42:13.114Z,57.13
2016-04-27T10:43:13.069Z,56.45
2016-04-27T10:44:13.728Z,55.62
2016-04-27T10:45:13.746Z,56.58
2016-04-27T10:46:14.702Z,56.1
2016-04-27T10:47:12.971Z,55.62
2016-04-27T10:48:12.974Z,56.9
2016-04-27T10:49:12.976Z,56.58
2016-04-27T10:50:12.932Z,55.81
2016-04-27T10:51:12.935Z,55.96
2016-04-27T10:52:12.905Z,56.74
2016-04-27T10:53:13.268Z,57.92
2016-04-27T10:54:12.880Z,56.84
2016-04-27T10:55:12.899Z,55.71
2016-04-27T10:56:12.870Z,56.87
2016-04-27T10:57:12.856Z,56.45
2016-04-27T10:58:12.829Z,53.23
2016-04-27T10:59:12.815Z,48.97
2016-04-27T11:00:12.791Z,47.84
2016-04-27T11:01:12.808Z,46.42
2016-04-27T11:02:12.780Z,42.25
2016-04-27T11:03:12.767Z,41.49
2016-04-27T11:04:12.770Z,40.09
2016-04-27T11:05:12.758Z,40.42
2016-04-27T11:06:12.744Z,39.24
2016-04-27T11:07:12.731Z,38.34
2016-04-27T11:08:12.563Z,39.67
2016-04-27T11:09:12.752Z,38.48
2016-04-27T11:10:12.693Z,37.16
2016-04-27T11:11:12.696Z,33.09
2016-04-27T11:12:12.682Z,36.79
2016-04-27T11:13:12.669Z,36.91
2016-04-27T11:14:12.891Z,38.25
2016-04-27T11:15:14.003Z,38.5
2016-04-27T11:16:14.849Z,38.85
2016-04-27T11:17:13.492Z,38.6
2016-04-27T11:18:12.824Z,38.15
2016-04-27T11:19:12.639Z,37.84
2016-04-27T11:20:13.376Z,43.12
2016-04-27T11:21:12.925Z,38.7
2016-04-27T11:22:12.662Z,34.38
2016-04-27T11:23:15.587Z,36.57
2016-04-27T11:24:13.152Z,38.99
2016-04-27T11:25:13.545Z,37.41
2016-04-27T11:26:13.392Z,35.51
2016-04-27T11:27:14.019Z,37.49
2016-04-27T11:28:12.600Z,34.74
2016-04-27T11:29:12.587Z,33.83
2016-04-27T11:30:12.590Z,36.65
2016-04-27T11:31:12.593Z,34.28
2016-04-27T11:32:12.580Z,32.5
2016-04-27T11:33:12.583Z,31.3
2016-04-27T11:34:12.569Z,34
2016-04-27T11:35:12.572Z,31.43
2016-04-27T11:36:12.575Z,30.6
2016-04-27T11:37:12.563Z,29.28
2016-04-27T11:38:12.581Z,29.69
2016-04-27T11:39:12.552Z,32.6
2016-04-27T11:40:12.570Z,29.39
2016-04-27T11:41:12.557Z,27.06
2016-04-27T11:42:12.544Z,26.6
2016-04-27T11:43:12.563Z,29.85
2016-04-27T11:44:12.549Z,28.3
2016-04-27T11:45:12.552Z,28.16
2016-04-27T11:46:12.539Z,26.71
2016-04-27T11:47:12.557Z,32.39
2016-04-27T11:48:12.545Z,31.24
2016-04-27T11:49:12.575Z,30.39
2016-04-27T11:50:12.607Z,32.29
2016-04-27T11:51:12.654Z,37.92
2016-04-27T11:52:12.718Z,37.01
2016-04-27T11:53:12.640Z,39.39
2016-04-27T11:54:12.780Z,34.65
2016-04-27T11:55:12.799Z,35.21
2016-04-27T11:56:12.802Z,31.65
2016-04-27T11:57:12.820Z,34.78
2016-04-27T11:58:12.839Z,37.39
2016-04-27T11:59:12.836Z,34.54
2016-04-27T12:00:12.845Z,35.94
2016-04-27T12:01:12.853Z,33.01
2016-04-27T12:02:12.845Z,31.22
2016-04-27T12:03:12.854Z,26.98
2016-04-27T12:04:12.861Z,23.76
2016-04-27T12:05:12.866Z,23.74
2016-04-27T12:06:12.871Z,22.97
2016-04-27T12:07:12.891Z,23.33
2016-04-27T12:08:12.755Z,24.9
2016-04-27T12:09:14.962Z,32.03
2016-04-27T12:10:12.857Z,33.76
2016-04-27T12:11:12.877Z,36.94
2016-04-27T12:12:12.864Z,31.91
2016-04-27T12:13:12.867Z,34
2016-04-27T12:14:12.871Z,33.59
2016-04-27T12:15:12.858Z,32.6
2016-04-27T12:16:12.877Z,30.17
2016-04-27T12:17:12.880Z,30.57
2016-04-27T12:18:12.883Z,31.82
2016-04-27T12:19:12.869Z,31.43
2016-04-27T12:20:12.873Z,30.69
2016-04-27T12:21:12.875Z,27.37
2016-04-27T12:22:12.877Z,23.64
2016-04-27T12:23:13.787Z,23.72
2016-04-27T12:24:12.884Z,30.87
2016-04-27T12:25:12.871Z,28.23
2016-04-27T12:26:12.874Z,30.74
2016-04-27T12:27:12.891Z,29.57
2016-04-27T12:28:12.894Z,24.29
2016-04-27T12:29:12.881Z,23.6
2016-04-27T12:30:12.899Z,23.52
2016-04-27T12:31:12.902Z,28.12
2016-04-27T12:32:12.890Z,32.16
2016-04-27T12:33:12.892Z,29.16
2016-04-27T12:34:12.895Z,29.32
2016-04-27T12:35:12.913Z,27.5
2016-04-27T12:36:12.915Z,27.03
2016-04-27T12:37:12.903Z,30.47
2016-04-27T12:38:15.812Z,36.83
2016-04-27T12:39:12.893Z,36.06
2016-04-27T12:40:12.896Z,40.42
2016-04-27T12:41:12.898Z,37.62
2016-04-27T12:42:12.885Z,36.06
2016-04-27T12:43:12.887Z,36.16
2016-04-27T12:44:12.890Z,37.51
2016-04-27T12:45:12.878Z,39.29
2016-04-27T12:46:12.911Z,45.42
2016-04-27T12:47:12.883Z,43.6
2016-04-27T12:48:12.886Z,41.91
2016-04-27T12:49:12.888Z,38.91
2016-04-27T12:50:12.875Z,36.6
2016-04-27T12:51:12.894Z,32.6
2016-04-27T12:52:12.880Z,32.99
2016-04-27T12:53:12.868Z,33.73
2016-04-27T12:54:12.871Z,31.68
2016-04-27T12:55:12.919Z,31.06